createdAt,value
2022-10-18T00:01:02.309Z,10.20
2022-10-18T00:03:29.954Z,10.40
2022-10-18T00:05:57.793Z,10.30
2022-10-18T00:08:25.855Z,10.30
2022-10-18T00:10:53.437Z,10.30
2022-10-18T00:13:21.649Z,10.40
2022-10-18T00:15:51.499Z,10.30
2022-10-18T00:18:19.739Z,10.30
2022-10-18T00:21:00.296Z,10.30
2022-10-18T00:23:29.590Z,10.30
2022-10-18T00:26:06.661Z,10.40
2022-10-18T00:28:35.304Z,10.40
2022-10-18T00:31:24.283Z,10.40
2022-10-18T00:33:55.190Z,10.40
2022-10-18T00:36:23.580Z,10.20
2022-10-18T00:38:51.844Z,10.40
2022-10-18T00:41:28.066Z,10.50
2022-10-18T00:43:55.600Z,10.40
2022-10-18T00:46:24.757Z,10.40
2022-10-18T00:51:23.776Z,10.40
2022-10-18T00:53:51.498Z,10.40
2022-10-18T00:56:19.098Z,10.40
2022-10-18T00:58:48.537Z,10.50
2022-10-18T01:01:16.237Z,10.50
2022-10-18T01:03:47.016Z,10.50
2022-10-18T01:06:14.436Z,10.50
2022-10-18T01:08:58.799Z,10.40
2022-10-18T01:11:51.197Z,10.40
2022-10-18T01:14:43.644Z,10.40
2022-10-18T01:17:49.626Z,10.60
2022-10-18T01:20:35.641Z,10.30
2022-10-18T01:23:14.025Z,10.20
2022-10-18T01:26:19.409Z,10.10
2022-10-18T01:28:52.549Z,10.00
2022-10-18T01:31:34.436Z,10.10
2022-10-18T01:34:06.783Z,10.10
2022-10-18T01:36:46.199Z,10.20
2022-10-18T01:39:18.748Z,10.10
2022-10-18T01:41:49.546Z,10.10
2022-10-18T01:44:21.501Z,10.10
2022-10-18T01:46:50.540Z,10.10
2022-10-18T01:49:17.993Z,10.10
2022-10-18T01:51:45.357Z,10.20
2022-10-18T01:54:18.251Z,10.10
2022-10-18T01:56:58.821Z,10.10
2022-10-18T01:59:56.752Z,10.10
2022-10-18T02:02:33.255Z,10.10
2022-10-18T02:05:13.246Z,10.10
2022-10-18T02:08:05.607Z,10.10
2022-10-18T02:10:43.987Z,10.10
2022-10-18T02:13:15.769Z,10.00
2022-10-18T02:15:46.983Z,10.00
2022-10-18T02:18:24.677Z,10.00
2022-10-18T02:20:53.190Z,10.00
2022-10-18T02:23:25.232Z,10.00
2022-10-18T02:25:53.551Z,10.00
2022-10-18T02:28:21.837Z,9.90
2022-10-18T02:30:55.687Z,9.90
2022-10-18T02:33:38.384Z,9.90
2022-10-18T02:36:13.843Z,9.90
2022-10-18T02:38:44.797Z,9.90
2022-10-18T02:41:12.244Z,9.90
2022-10-18T02:43:39.737Z,9.90
2022-10-18T02:46:07.386Z,9.60
2022-10-18T02:48:34.805Z,10.10
2022-10-18T02:51:02.220Z,9.90
2022-10-18T02:53:29.615Z,9.90
2022-10-18T02:55:56.955Z,9.40
2022-10-18T02:58:24.286Z,9.80
2022-10-18T03:00:51.593Z,9.70
2022-10-18T03:03:19.023Z,9.70
2022-10-18T03:05:49.748Z,9.60
2022-10-18T03:08:17.328Z,9.70
2022-10-18T03:10:46.084Z,9.60
2022-10-18T03:13:13.939Z,9.70
2022-10-18T03:15:42.313Z,9.70
2022-10-18T03:18:09.782Z,10.20
2022-10-18T03:20:37.535Z,9.70
2022-10-18T03:23:04.918Z,9.70
2022-10-18T03:25:32.259Z,9.60
2022-10-18T03:27:59.713Z,9.50
2022-10-18T03:30:27.430Z,9.50
2022-10-18T03:32:54.841Z,9.50
2022-10-18T03:35:22.574Z,9.10
2022-10-18T03:37:50.033Z,9.40
2022-10-18T03:40:17.978Z,9.40
2022-10-18T03:42:45.568Z,9.30
2022-10-18T03:45:13.113Z,9.20
2022-10-18T03:47:40.533Z,9.10
2022-10-18T03:50:08.615Z,9.10
2022-10-18T03:52:36.072Z,9.10
2022-10-18T03:55:04.099Z,9.20
2022-10-18T03:57:31.777Z,9.30
2022-10-18T03:59:59.190Z,9.30
2022-10-18T04:02:26.559Z,9.40
2022-10-18T04:04:54.086Z,9.40
2022-10-18T04:07:21.774Z,9.50
2022-10-18T04:09:49.181Z,9.60
2022-10-18T04:12:16.635Z,9.50
2022-10-18T04:14:43.958Z,9.40
2022-10-18T04:17:11.419Z,9.30
2022-10-18T04:19:38.758Z,9.10
2022-10-18T04:22:06.209Z,9.10
2022-10-18T04:24:33.701Z,9.10
2022-10-18T04:27:01.051Z,9.00
2022-10-18T04:29:28.493Z,9.00
2022-10-18T04:31:55.999Z,9.00
2022-10-18T04:34:23.631Z,9.00
2022-10-18T04:36:51.226Z,9.00
2022-10-18T04:39:18.560Z,9.10
2022-10-18T04:41:45.921Z,9.20
2022-10-18T04:44:13.513Z,9.30
2022-10-18T04:46:40.996Z,9.50
2022-10-18T04:49:08.432Z,9.00
2022-10-18T04:51:35.839Z,9.00
2022-10-18T04:54:03.322Z,9.00
2022-10-18T04:56:30.955Z,8.80
2022-10-18T04:58:59.827Z,8.90
2022-10-18T05:01:27.269Z,8.90
2022-10-18T05:03:55.742Z,8.90
2022-10-18T05:06:23.540Z,8.90
2022-10-18T05:08:50.936Z,9.10
2022-10-18T05:11:18.297Z,8.80
2022-10-18T05:13:47.318Z,8.80
2022-10-18T05:16:17.722Z,8.80
2022-10-18T05:18:45.237Z,8.80
2022-10-18T05:21:13.319Z,8.80
2022-10-18T05:23:40.744Z,8.80
2022-10-18T05:26:08.989Z,8.80
2022-10-18T05:28:40.542Z,8.70
2022-10-18T05:31:10.231Z,8.80
2022-10-18T05:33:40.445Z,8.80
2022-10-18T05:36:08.249Z,8.70
2022-10-18T05:38:37.950Z,8.70
2022-10-18T05:41:05.824Z,8.60
2022-10-18T05:43:33.513Z,8.60
2022-10-18T05:46:00.918Z,8.60
2022-10-18T05:48:28.386Z,8.60
2022-10-18T05:50:59.789Z,8.70
2022-10-18T05:53:43.194Z,8.60
2022-10-18T05:56:14.720Z,8.70
2022-10-18T05:58:45.212Z,8.60
2022-10-18T06:01:12.685Z,8.60
2022-10-18T06:03:40.427Z,8.60
2022-10-18T06:06:10.359Z,8.60
2022-10-18T06:08:39.775Z,8.70
2022-10-18T06:11:09.497Z,8.70
2022-10-18T06:13:41.437Z,8.70
2022-10-18T06:16:09.653Z,8.70
2022-10-18T06:18:37.263Z,8.70
2022-10-18T06:21:05.245Z,8.70
2022-10-18T06:23:32.659Z,8.70
2022-10-18T06:26:06.418Z,8.70
2022-10-18T06:28:37.934Z,8.60
2022-10-18T06:31:06.693Z,8.90
2022-10-18T06:33:35.674Z,8.60
2022-10-18T06:36:08.566Z,8.70
2022-10-18T06:38:36.261Z,8.70
2022-10-18T06:41:06.672Z,8.70
2022-10-18T06:43:34.571Z,8.60
2022-10-18T06:46:07.896Z,8.60
2022-10-18T06:48:36.666Z,8.80
2022-10-18T06:51:06.195Z,8.70
2022-10-18T06:53:40.749Z,8.70
2022-10-18T06:56:13.751Z,8.70
2022-10-18T06:58:41.340Z,8.70
2022-10-18T07:01:11.786Z,8.70
2022-10-18T07:03:39.956Z,8.80
2022-10-18T07:06:09.389Z,8.90
2022-10-18T07:08:37.182Z,8.80
2022-10-18T07:11:05.809Z,8.80
2022-10-18T07:13:33.886Z,8.80
2022-10-18T07:16:07.295Z,8.80
2022-10-18T07:18:36.342Z,8.90
2022-10-18T07:21:06.266Z,8.90
2022-10-18T07:23:35.116Z,8.90
2022-10-18T07:26:05.031Z,8.90
2022-10-18T07:28:32.599Z,8.90
2022-10-18T07:31:06.239Z,8.90
2022-10-18T07:33:35.372Z,8.90
2022-10-18T07:36:04.769Z,9.10
2022-10-18T07:38:32.666Z,9.00
2022-10-18T07:41:01.747Z,9.00
2022-10-18T07:43:29.835Z,9.00
2022-10-18T07:45:59.801Z,9.00
2022-10-18T07:48:27.861Z,9.10
2022-10-18T07:50:59.800Z,9.00
2022-10-18T07:53:27.819Z,9.10
2022-10-18T07:56:07.285Z,9.20
2022-10-18T07:58:37.095Z,9.30
2022-10-18T08:01:06.676Z,9.30
2022-10-18T08:03:34.597Z,9.20
2022-10-18T08:06:02.294Z,9.10
2022-10-18T08:08:30.244Z,9.10
2022-10-18T08:11:04.011Z,9.20
2022-10-18T08:13:31.697Z,9.20
2022-10-18T08:16:07.805Z,9.30
2022-10-18T08:18:36.064Z,9.30
2022-10-18T08:21:05.285Z,9.20
2022-10-18T08:23:33.282Z,9.20
2022-10-18T08:26:15.471Z,9.20
2022-10-18T08:28:49.161Z,9.20
2022-10-18T08:31:25.982Z,9.30
2022-10-18T08:33:56.185Z,9.30
2022-10-18T08:36:24.011Z,9.20
2022-10-18T08:38:52.085Z,9.20
2022-10-18T08:41:22.214Z,9.20
2022-10-18T08:43:55.828Z,9.30
2022-10-18T08:46:23.358Z,9.30
2022-10-18T08:48:54.247Z,9.30
2022-10-18T08:51:30.372Z,9.30
2022-10-18T08:54:11.154Z,9.50
2022-10-18T08:56:40.977Z,9.40
2022-10-18T08:59:13.599Z,9.40
2022-10-18T09:04:22.209Z,9.50
2022-10-18T09:07:01.762Z,9.70
2022-10-18T09:09:51.924Z,9.70
2022-10-18T09:12:51.484Z,9.60
2022-10-18T09:15:26.851Z,9.60
2022-10-18T09:18:09.449Z,9.60
2022-10-18T09:20:51.004Z,9.60
2022-10-18T09:23:29.400Z,9.60
2022-10-18T09:26:14.671Z,9.60
2022-10-18T09:29:05.334Z,9.70
2022-10-18T09:31:55.350Z,9.70
2022-10-18T09:34:33.976Z,9.80
2022-10-18T09:37:02.342Z,9.80
2022-10-18T09:39:33.903Z,9.80
2022-10-18T09:42:18.101Z,9.90
2022-10-18T09:44:51.566Z,10.00
2022-10-18T09:47:26.671Z,10.00
2022-10-18T09:50:09.509Z,10.30
2022-10-18T09:52:43.808Z,10.70
2022-10-18T09:55:30.904Z,10.00
2022-10-18T09:58:02.507Z,9.70
2022-10-18T10:00:46.457Z,9.90
2022-10-18T10:03:15.493Z,9.90
2022-10-18T10:05:44.330Z,10.00
2022-10-18T10:08:12.221Z,10.00
2022-10-18T10:10:45.747Z,10.00
2022-10-18T10:13:23.265Z,10.00
2022-10-18T10:15:56.387Z,9.90
2022-10-18T10:18:31.684Z,10.00
2022-10-18T10:21:14.460Z,10.00
2022-10-18T10:23:59.627Z,10.00
2022-10-18T10:26:34.297Z,10.20
2022-10-18T10:29:01.987Z,10.30
2022-10-18T10:31:34.473Z,10.30
2022-10-18T10:34:05.626Z,10.30
2022-10-18T10:36:34.740Z,10.50
2022-10-18T10:39:13.295Z,10.40
2022-10-18T10:41:41.475Z,10.40
2022-10-18T10:44:36.316Z,10.80
2022-10-18T10:47:04.397Z,10.30
2022-10-18T10:49:43.890Z,10.30
2022-10-18T10:52:28.361Z,10.60
2022-10-18T10:55:16.743Z,10.10
2022-10-18T10:57:47.529Z,10.10
2022-10-18T11:00:34.543Z,10.30
2022-10-18T11:03:27.826Z,10.20
2022-10-18T11:05:58.894Z,9.70
2022-10-18T11:08:30.166Z,10.20
2022-10-18T11:11:06.599Z,10.20
2022-10-18T11:13:53.426Z,10.30
2022-10-18T11:16:48.016Z,10.30
2022-10-18T11:19:42.884Z,10.20
2022-10-18T11:22:16.655Z,10.30
2022-10-18T11:24:44.230Z,10.30
2022-10-18T11:27:26.807Z,10.30
2022-10-18T11:30:45.018Z,10.40
2022-10-18T11:33:44.260Z,10.30
2022-10-18T11:36:27.705Z,9.90
2022-10-18T11:39:30.454Z,10.40
2022-10-18T11:42:23.099Z,10.30
2022-10-18T11:44:53.556Z,10.30
2022-10-18T11:47:23.837Z,10.60
2022-10-18T11:50:09.989Z,10.30
2022-10-18T11:52:57.801Z,10.70
2022-10-18T11:55:45.368Z,10.40
2022-10-18T11:58:27.614Z,10.50
2022-10-18T12:01:08.034Z,10.50
2022-10-18T12:03:42.053Z,10.40
2022-10-18T12:06:21.013Z,10.40
2022-10-18T12:09:02.036Z,10.30
2022-10-18T12:11:41.056Z,10.40
2022-10-18T12:14:22.459Z,10.50
2022-10-18T12:16:53.592Z,10.40
2022-10-18T12:19:33.244Z,10.50
2022-10-18T12:22:29.343Z,10.50
2022-10-18T12:24:57.190Z,10.60
2022-10-18T12:27:44.826Z,10.50
2022-10-18T12:30:31.261Z,10.60
2022-10-18T12:33:27.167Z,10.50
2022-10-18T12:36:13.117Z,10.40
2022-10-18T12:38:44.996Z,10.40
2022-10-18T12:41:28.458Z,10.40
2022-10-18T12:44:18.583Z,10.40
2022-10-18T12:46:52.169Z,10.40
2022-10-18T12:49:28.681Z,10.40
2022-10-18T12:52:08.040Z,10.50
2022-10-18T12:54:38.021Z,10.60
2022-10-18T12:57:22.784Z,10.30
2022-10-18T12:59:50.668Z,10.40
2022-10-18T13:02:25.692Z,10.40
2022-10-18T13:04:53.706Z,10.50
2022-10-18T13:07:32.298Z,10.40
2022-10-18T13:10:23.390Z,10.40
2022-10-18T13:13:38.561Z,10.60
2022-10-18T13:16:24.048Z,10.70
2022-10-18T13:19:01.463Z,10.80
2022-10-18T13:22:06.000Z,10.80
2022-10-18T13:24:43.691Z,10.80
2022-10-18T13:27:42.673Z,10.80
2022-10-18T13:30:24.319Z,10.90
2022-10-18T13:32:57.444Z,10.80
2022-10-18T13:35:50.865Z,10.80
2022-10-18T13:38:30.916Z,10.80
2022-10-18T13:41:31.323Z,10.70
2022-10-18T13:44:05.003Z,10.70
2022-10-18T13:46:35.066Z,10.70
2022-10-18T13:49:17.731Z,10.20
2022-10-18T13:51:57.126Z,10.80
2022-10-18T13:54:45.829Z,10.70
2022-10-18T13:57:47.553Z,10.70
2022-10-18T14:00:36.396Z,10.70
2022-10-18T14:03:56.803Z,10.60
2022-10-18T14:06:33.971Z,10.60
2022-10-18T14:09:25.467Z,10.50
2022-10-18T14:12:33.797Z,10.50
2022-10-18T14:15:16.159Z,10.40
2022-10-18T14:18:31.856Z,10.30
2022-10-18T14:21:21.587Z,10.20
2022-10-18T14:23:51.277Z,10.60
2022-10-18T14:26:21.023Z,10.30
2022-10-18T14:29:05.396Z,10.30
2022-10-18T14:31:33.556Z,10.30
2022-10-18T14:34:01.473Z,10.30
2022-10-18T14:36:41.021Z,10.30
2022-10-18T14:39:29.206Z,10.30
2022-10-18T14:41:58.308Z,10.30
2022-10-18T14:44:35.024Z,10.30
2022-10-18T14:47:15.040Z,10.30
2022-10-18T14:49:44.244Z,10.20
2022-10-18T14:52:15.581Z,10.30
2022-10-18T14:54:43.512Z,10.30
2022-10-18T14:57:22.561Z,10.30
2022-10-18T14:59:53.986Z,10.30
2022-10-18T15:02:26.561Z,10.30
2022-10-18T15:05:00.376Z,10.20
2022-10-18T15:07:31.327Z,10.40
2022-10-18T15:10:03.106Z,10.10
2022-10-18T15:12:40.854Z,10.00
2022-10-18T15:15:27.398Z,10.00
2022-10-18T15:17:55.182Z,9.90
2022-10-18T15:20:32.007Z,9.90
2022-10-18T15:23:21.125Z,9.60
2022-10-18T15:25:50.453Z,9.10
2022-10-18T15:28:51.491Z,8.70
2022-10-18T15:31:47.906Z,8.30
2022-10-18T15:34:27.738Z,8.10
2022-10-18T15:36:56.290Z,8.20
2022-10-18T15:39:27.211Z,8.20
2022-10-18T15:41:56.326Z,8.20
2022-10-18T15:44:34.932Z,8.30
2022-10-18T15:47:20.442Z,8.30
2022-10-18T15:49:59.091Z,8.20
2022-10-18T15:52:32.700Z,8.10
2022-10-18T15:55:23.724Z,8.20
2022-10-18T15:57:51.416Z,8.20
2022-10-18T16:00:20.631Z,8.20
2022-10-18T16:02:48.100Z,8.20
2022-10-18T16:05:17.625Z,8.20
2022-10-18T16:07:45.309Z,8.30
2022-10-18T16:10:14.692Z,8.20
2022-10-18T16:12:42.336Z,8.20
2022-10-18T16:15:10.488Z,8.20
2022-10-18T16:17:38.284Z,8.30
2022-10-18T16:20:06.589Z,8.30
2022-10-18T16:22:37.001Z,8.60
2022-10-18T16:25:05.057Z,8.40
2022-10-18T16:27:32.881Z,8.30
2022-10-18T16:30:00.301Z,8.30
2022-10-18T16:32:27.627Z,8.30
2022-10-18T16:34:55.213Z,8.20
2022-10-18T16:37:22.751Z,8.20
2022-10-18T16:39:50.360Z,8.10
2022-10-18T16:42:17.894Z,8.00
2022-10-18T16:44:45.704Z,8.40
2022-10-18T16:47:13.549Z,8.20
2022-10-18T16:49:41.508Z,8.00
2022-10-18T16:52:08.863Z,8.00
2022-10-18T16:54:36.421Z,8.00
2022-10-18T16:57:04.013Z,8.00
2022-10-18T16:59:32.323Z,8.00
2022-10-18T17:02:04.995Z,8.00
2022-10-18T17:04:32.543Z,8.00
2022-10-18T17:07:00.099Z,7.90
2022-10-18T17:09:27.506Z,7.90
2022-10-18T17:11:54.871Z,7.90
2022-10-18T17:14:22.278Z,7.90
2022-10-18T17:16:53.790Z,7.90
2022-10-18T17:19:23.431Z,7.90
2022-10-18T17:21:50.985Z,7.90
2022-10-18T17:24:18.377Z,7.90
2022-10-18T17:26:46.170Z,7.80
2022-10-18T17:29:14.098Z,8.10
2022-10-18T17:31:41.505Z,7.90
2022-10-18T17:34:09.688Z,7.90
2022-10-18T17:36:37.457Z,7.90
2022-10-18T17:39:05.430Z,7.90
2022-10-18T17:41:33.265Z,7.90
2022-10-18T17:44:03.297Z,7.90
2022-10-18T17:46:31.587Z,7.90
2022-10-18T17:48:59.160Z,7.90
2022-10-18T17:51:26.871Z,7.80
2022-10-18T17:53:54.742Z,7.70
2022-10-18T17:56:22.272Z,7.80
2022-10-18T17:58:52.981Z,7.70
2022-10-18T18:01:23.238Z,7.60
2022-10-18T18:03:51.191Z,7.60
2022-10-18T18:06:34.110Z,7.60
2022-10-18T18:09:07.640Z,7.50
2022-10-18T18:11:37.225Z,7.50
2022-10-18T18:14:09.773Z,7.40
2022-10-18T18:16:39.649Z,7.40
2022-10-18T18:19:09.921Z,7.40
2022-10-18T18:21:39.208Z,7.40
2022-10-18T18:24:07.611Z,7.40
2022-10-18T18:26:36.902Z,7.40
2022-10-18T18:29:04.532Z,7.30
2022-10-18T18:31:34.555Z,7.30
2022-10-18T18:34:06.287Z,7.20
2022-10-18T18:36:34.218Z,7.20
2022-10-18T18:39:02.246Z,7.20
2022-10-18T18:41:29.755Z,7.20
2022-10-18T18:44:02.749Z,7.20
2022-10-18T18:46:34.443Z,7.20
2022-10-18T18:49:02.312Z,7.20
2022-10-18T18:51:29.724Z,7.00
2022-10-18T18:53:57.271Z,7.10
2022-10-18T18:56:26.422Z,7.00
2022-10-18T18:58:54.616Z,7.00
2022-10-18T19:01:25.178Z,7.00
2022-10-18T19:03:55.464Z,7.00
2022-10-18T19:06:25.793Z,7.00
2022-10-18T19:09:00.452Z,7.00
2022-10-18T19:11:33.766Z,7.00
2022-10-18T19:14:01.948Z,7.00
2022-10-18T19:16:32.007Z,7.00
2022-10-18T19:19:07.135Z,7.00
2022-10-18T19:21:37.865Z,6.90
2022-10-18T19:24:06.543Z,6.90
2022-10-18T19:26:45.088Z,6.80
2022-10-18T19:29:19.570Z,6.70
2022-10-18T19:31:47.475Z,6.70
2022-10-18T19:34:16.457Z,6.70
2022-10-18T19:36:46.209Z,6.70
2022-10-18T19:39:19.334Z,6.70
2022-10-18T19:41:49.543Z,6.70
2022-10-18T19:44:20.637Z,6.70
2022-10-18T19:46:49.000Z,6.70
2022-10-18T19:49:17.044Z,6.80
2022-10-18T19:51:45.203Z,6.60
2022-10-18T19:54:14.382Z,6.60
2022-10-18T19:56:43.121Z,6.50
2022-10-18T19:59:11.790Z,6.50
2022-10-18T20:01:39.762Z,6.60
2022-10-18T20:04:08.681Z,6.50
2022-10-18T20:06:38.465Z,6.60
2022-10-18T20:09:07.646Z,6.50
2022-10-18T20:11:35.681Z,6.50
2022-10-18T20:14:05.496Z,6.50
2022-10-18T20:16:34.244Z,6.50
2022-10-18T20:19:04.613Z,6.40
2022-10-18T20:21:36.183Z,6.40
2022-10-18T20:24:05.711Z,6.40
2022-10-18T20:26:35.028Z,6.40
2022-10-18T20:29:03.069Z,6.40
2022-10-18T20:31:33.948Z,6.40
2022-10-18T20:34:03.756Z,6.30
2022-10-18T20:36:32.773Z,6.30
2022-10-18T20:39:00.872Z,6.30
2022-10-18T20:41:34.199Z,6.30
2022-10-18T20:44:04.611Z,6.30
2022-10-18T20:46:34.527Z,6.20
2022-10-18T20:49:02.628Z,6.20
2022-10-18T20:51:30.408Z,6.20
2022-10-18T20:53:58.346Z,6.10
2022-10-18T20:56:27.428Z,6.10
2022-10-18T20:58:56.827Z,6.10
2022-10-18T21:01:28.599Z,6.10
2022-10-18T21:03:58.450Z,6.10
2022-10-18T21:06:30.348Z,6.00
2022-10-18T21:09:03.896Z,6.00
2022-10-18T21:11:34.614Z,6.00
2022-10-18T21:14:03.389Z,6.00
2022-10-18T21:16:32.792Z,5.90
2022-10-18T21:19:18.514Z,5.90
2022-10-18T21:21:50.409Z,5.80
2022-10-18T21:24:19.732Z,5.80
2022-10-18T21:26:48.429Z,5.80
2022-10-18T21:29:21.561Z,5.70
2022-10-18T21:31:49.338Z,5.60
2022-10-18T21:34:17.668Z,5.60
2022-10-18T21:36:47.304Z,5.50
2022-10-18T21:39:21.623Z,5.50
2022-10-18T21:41:49.838Z,5.40
2022-10-18T21:44:18.049Z,5.40
2022-10-18T21:46:47.016Z,5.40
2022-10-18T21:49:15.683Z,5.30
2022-10-18T21:51:43.696Z,5.50
2022-10-18T21:54:16.272Z,5.40
2022-10-18T21:56:44.282Z,5.20
2022-10-18T21:59:12.977Z,5.20
2022-10-18T22:01:41.409Z,5.20
2022-10-18T22:04:18.595Z,5.10
2022-10-18T22:06:46.463Z,5.00
2022-10-18T22:09:14.348Z,5.00
2022-10-18T22:11:44.865Z,5.00
2022-10-18T22:14:12.551Z,5.00
2022-10-18T22:16:40.187Z,5.00
2022-10-18T22:19:08.059Z,4.90
2022-10-18T22:21:35.904Z,4.30
2022-10-18T22:24:09.051Z,4.90
2022-10-18T22:26:40.481Z,4.90
2022-10-18T22:29:11.522Z,4.90
2022-10-18T22:31:42.380Z,4.90
2022-10-18T22:34:21.563Z,5.10
2022-10-18T22:36:49.657Z,4.80
2022-10-18T22:39:17.853Z,4.80
2022-10-18T22:41:46.931Z,4.70
2022-10-18T22:44:15.435Z,4.70
2022-10-18T22:46:43.059Z,4.70
2022-10-18T22:49:12.297Z,4.80
2022-10-18T22:51:40.692Z,4.70
2022-10-18T22:54:08.848Z,5.00
2022-10-18T22:56:36.593Z,4.70
2022-10-18T22:59:04.250Z,4.50
2022-10-18T23:01:31.697Z,4.70
2022-10-18T23:04:00.745Z,4.50
2022-10-18T23:06:29.370Z,4.40
2022-10-18T23:08:58.211Z,4.40
2022-10-18T23:11:27.325Z,4.30
2022-10-18T23:13:55.234Z,4.30
2022-10-18T23:16:23.568Z,4.40
2022-10-18T23:18:55.751Z,4.80
2022-10-18T23:21:24.897Z,4.50
2022-10-18T23:23:53.523Z,4.30
2022-10-18T23:26:23.886Z,4.20
2022-10-18T23:28:52.598Z,4.20
2022-10-18T23:31:27.470Z,4.20
2022-10-18T23:33:59.882Z,4.80
2022-10-18T23:36:27.634Z,4.10
2022-10-18T23:38:55.920Z,4.70
2022-10-18T23:41:23.550Z,4.10
2022-10-18T23:43:51.486Z,4.20
2022-10-18T23:46:19.415Z,4.00
2022-10-18T23:48:47.569Z,4.00
2022-10-18T23:51:15.594Z,4.00
2022-10-18T23:53:43.499Z,4.00
2022-10-18T23:56:14.570Z,4.00
2022-10-18T23:58:46.006Z,3.90
